MCT weather

Muscat International Airport
Muscat, Masqat Governorate, Oman

Public forecast

Using degrees Celsius for public forecast. Weather courtesy of forecast.io.

Current aviation weather report (METAR) for Muscat International Airport

Retrieved 2019/12/09 22:50 UTC (33 minutes ago):

OOMS 092250Z 25003KT 230V290 CAVOK 22/20 Q1015 NOSIG

Aviation forecast (TAF) for Muscat International Airport

Retrieved 2019/12/09 18:32 UTC (5 hours ago):

TAF OOMS 091700Z 0918/1024 VRB02KT 8000 NSC PROB30 TEMPO 1002/1006 -RA BKN020 BECMG 1006/1008 05012KT BECMG 1018/1020 25005KT PROB30 TEMPO 1019/1024 -RA BKN030